03:53
Airports
History
Links
Donate
Help keep this website running!
PayPal
Bitcoin
This page is community maintained. The information is intended for PC simulator navigation or reference.
Always use approved charts for navigation.
LDDU
DUBROVNIK
DUBROVNIK (LDDU)
Konavle, Dubrovnik-Neretva, Croatia (20213)
(C)
Lat/Lng:42° 33' 46.22" N / 18° 15' 52.2" E
42.56284 / 18.264499
Elevation:527'ft / 161mMSL
ID / ICAO:LDDU
Runways:1
Longest:12-30
Asphalt 3,283m / 10,771ft
Controlled:Yes
METAR03:30 GMT 2017-10-24
Altimeter: 29.68
Visibility: 6.2 statute miles
Wind: 18 knots (from 320°)
Temp: 13°c / 55°f
Humidity: 43.8%

METAR: LDDU 240330Z 32018G28KT 290V350 CAVOK 13/01 Q1005 TEMPO VRB20G45KT

(Powered by phpweather)
Airport Radio Frequencies
Tower: 118.5
Approach: 123.6
Nearby VORs <50NM
Nearby NDBs
Runway 12 / 30
Dimensions:3283.1 x 45.1m 10771' x 148'ft
Surface:Asphalt
Edge Lights:High intensity
Runway 12 [A]Runway 30 [B]
Heading:118°TH 298°TH
Lat:
Lng:
42° 34' 11.5"N
18° 14' 48.5"E
42° 33' 20.95"N
18° 16' 55.89"E
ALS:MALSMALS
TDZ:Yes, lighted
User Notes and Comments
42° 33' 46.22" N / 18° 15' 52.2" E
Distance To
Airport ID:
Nearby Airports
(C) Tivat 25.8 NM
LYTV ( WX ) ESE 115°
(U) PLOCE 53.6 NM
LDDP NW 307°
(C) Podgorica 53.7 NM
LYPG ( WX ) ESE 104°
(C) MOSTAR 54.1 NM
LQMO ( WX ) NNW 336°
(C) GJADER 82.5 NM
LAGJ SE 124°
(C) Sarajevo 87.2 NM
LQSA ( WX ) N
(C) BRAC 94.5 NM
LDSB WNW 301°
VFR Chart
Flight Planning at SkyVector.com